sensor_id;sensor_type;location;lat;lon;timestamp;pressure;altitude;pressure_sealevel;temperature;humidity
79782;BME280;69262;48.470;7.960;2023-04-24T00:02:03;98801.31;;;18.08;52.81
79782;BME280;69262;48.470;7.960;2023-04-24T00:05:07;98793.25;;;17.96;52.88
79782;BME280;69262;48.470;7.960;2023-04-24T00:08:08;98799.28;;;17.98;53.15
79782;BME280;69262;48.470;7.960;2023-04-24T00:11:08;98796.50;;;17.93;52.96
79782;BME280;69262;48.470;7.960;2023-04-24T00:14:09;98796.81;;;17.96;52.81
79782;BME280;69262;48.470;7.960;2023-04-24T00:17:10;98797.84;;;17.90;52.88
79782;BME280;69262;48.470;7.960;2023-04-24T00:20:10;98810.53;;;18.01;52.75
79782;BME280;69262;48.470;7.960;2023-04-24T00:23:11;98815.41;;;17.99;53.13
79782;BME280;69262;48.470;7.960;2023-04-24T00:26:11;98808.50;;;17.92;53.12
79782;BME280;69262;48.470;7.960;2023-04-24T00:29:12;98811.81;;;17.94;53.21
79782;BME280;69262;48.470;7.960;2023-04-24T00:32:12;98818.09;;;17.94;53.02
79782;BME280;69262;48.470;7.960;2023-04-24T00:35:13;98824.94;;;17.97;53.05
79782;BME280;69262;48.470;7.960;2023-04-24T00:38:14;98809.66;;;17.96;52.93
79782;BME280;69262;48.470;7.960;2023-04-24T00:41:16;98809.06;;;17.94;53.30
79782;BME280;69262;48.470;7.960;2023-04-24T00:44:16;98803.78;;;17.87;53.53
79782;BME280;69262;48.470;7.960;2023-04-24T00:47:18;98815.88;;;17.91;53.43
79782;BME280;69262;48.470;7.960;2023-04-24T00:50:20;98813.97;;;17.92;53.43
79782;BME280;69262;48.470;7.960;2023-04-24T00:53:21;98803.31;;;17.90;53.69
79782;BME280;69262;48.470;7.960;2023-04-24T00:56:22;98800.56;;;17.90;53.79
79782;BME280;69262;48.470;7.960;2023-04-24T00:59:23;98804.88;;;17.86;54.13
79782;BME280;69262;48.470;7.960;2023-04-24T01:02:24;98791.16;;;17.81;53.81
79782;BME280;69262;48.470;7.960;2023-04-24T01:05:25;98794.19;;;17.85;53.66
79782;BME280;69262;48.470;7.960;2023-04-24T01:08:26;98809.59;;;17.91;53.73
79782;BME280;69262;48.470;7.960;2023-04-24T01:11:28;98818.34;;;17.93;53.80
79782;BME280;69262;48.470;7.960;2023-04-24T01:14:29;98816.69;;;17.92;53.83
79782;BME280;69262;48.470;7.960;2023-04-24T01:17:30;98802.13;;;17.86;54.02
79782;BME280;69262;48.470;7.960;2023-04-24T01:20:32;98794.47;;;17.83;53.84
79782;BME280;69262;48.470;7.960;2023-04-24T01:23:33;98801.06;;;17.87;53.97
79782;BME280;69262;48.470;7.960;2023-04-24T01:26:34;98788.16;;;17.83;53.84
79782;BME280;69262;48.470;7.960;2023-04-24T01:29:34;98808.19;;;17.88;53.84
79782;BME280;69262;48.470;7.960;2023-04-24T01:32:36;98791.72;;;17.83;53.83
79782;BME280;69262;48.470;7.960;2023-04-24T01:35:37;98809.03;;;17.89;54.47
79782;BME280;69262;48.470;7.960;2023-04-24T01:38:37;98790.84;;;17.78;53.69
79782;BME280;69262;48.470;7.960;2023-04-24T01:41:38;98805.06;;;17.80;53.84
79782;BME280;69262;48.470;7.960;2023-04-24T01:44:38;98787.75;;;17.69;54.51
79782;BME280;69262;48.470;7.960;2023-04-24T01:47:39;98805.88;;;17.80;54.39
79782;BME280;69262;48.470;7.960;2023-04-24T01:50:39;98789.06;;;17.66;54.49
79782;BME280;69262;48.470;7.960;2023-04-24T01:53:40;98762.94;;;17.54;54.31
79782;BME280;69262;48.470;7.960;2023-04-24T01:56:41;98799.91;;;17.83;54.43
79782;BME280;69262;48.470;7.960;2023-04-24T01:59:45;98792.44;;;17.73;54.31
79782;BME280;69262;48.470;7.960;2023-04-24T02:02:45;98794.97;;;17.80;54.34
79782;BME280;69262;48.470;7.960;2023-04-24T02:05:46;98753.94;;;17.53;54.43
79782;BME280;69262;48.470;7.960;2023-04-24T02:08:46;98736.59;;;17.42;54.49
79782;BME280;69262;48.470;7.960;2023-04-24T02:11:47;98800.44;;;17.80;54.17
79782;BME280;69262;48.470;7.960;2023-04-24T02:14:47;98794.41;;;17.78;54.43
79782;BME280;69262;48.470;7.960;2023-04-24T02:17:47;98760.53;;;17.57;54.50
79782;BME280;69262;48.470;7.960;2023-04-24T02:20:48;98777.31;;;17.66;54.46
79782;BME280;69262;48.470;7.960;2023-04-24T02:23:48;98765.72;;;17.59;54.65
79782;BME280;69262;48.470;7.960;2023-04-24T02:26:48;98754.75;;;17.54;54.43
79782;BME280;69262;48.470;7.960;2023-04-24T02:29:49;98744.56;;;17.44;54.52
79782;BME280;69262;48.470;7.960;2023-04-24T02:32:49;98777.47;;;17.59;54.45
79782;BME280;69262;48.470;7.960;2023-04-24T02:35:50;98798.31;;;17.65;54.68
79782;BME280;69262;48.470;7.960;2023-04-24T02:38:51;98775.19;;;17.51;54.49
79782;BME280;69262;48.470;7.960;2023-04-24T02:41:51;98734.50;;;17.28;54.33
79782;BME280;69262;48.470;7.960;2023-04-24T02:44:51;98790.28;;;17.59;54.35
79782;BME280;69262;48.470;7.960;2023-04-24T02:47:52;98789.72;;;17.57;54.43
79782;BME280;69262;48.470;7.960;2023-04-24T02:50:52;98827.09;;;17.73;54.37
79782;BME280;69262;48.470;7.960;2023-04-24T02:53:53;98824.53;;;17.66;54.42
79782;BME280;69262;48.470;7.960;2023-04-24T02:56:53;98823.94;;;17.64;54.46
79782;BME280;69262;48.470;7.960;2023-04-24T02:59:53;98802.44;;;17.46;54.49
79782;BME280;69262;48.470;7.960;2023-04-24T03:02:54;98804.78;;;17.59;54.37
79782;BME280;69262;48.470;7.960;2023-04-24T03:05:54;98799.75;;;17.51;54.42
79782;BME280;69262;48.470;7.960;2023-04-24T03:08:57;98838.34;;;17.60;54.44
79782;BME280;69262;48.470;7.960;2023-04-24T03:11:57;98849.25;;;17.60;54.55
79782;BME280;69262;48.470;7.960;2023-04-24T03:14:58;98822.69;;;17.33;54.91
79782;BME280;69262;48.470;7.960;2023-04-24T03:17:59;98866.66;;;17.54;54.71
79782;BME280;69262;48.470;7.960;2023-04-24T03:21:00;98854.78;;;17.43;54.92
79782;BME280;69262;48.470;7.960;2023-04-24T03:24:01;98799.75;;;17.12;55.42
79782;BME280;69262;48.470;7.960;2023-04-24T03:27:02;98847.97;;;17.45;54.85
79782;BME280;69262;48.470;7.960;2023-04-24T03:30:20;98851.84;;;17.50;55.15
79782;BME280;69262;48.470;7.960;2023-04-24T03:33:26;98869.94;;;17.56;54.94
79782;BME280;69262;48.470;7.960;2023-04-24T03:36:34;98821.03;;;17.32;54.63
79782;BME280;69262;48.470;7.960;2023-04-24T03:39:34;98845.66;;;17.54;54.42
79782;BME280;69262;48.470;7.960;2023-04-24T03:42:35;98835.22;;;17.68;53.81
79782;BME280;69262;48.470;7.960;2023-04-24T03:45:35;98825.19;;;17.73;53.53
79782;BME280;69262;48.470;7.960;2023-04-24T03:48:36;98886.75;;;18.03;53.71
79782;BME280;69262;48.470;7.960;2023-04-24T03:51:36;98875.31;;;18.06;53.47
79782;BME280;69262;48.470;7.960;2023-04-24T03:54:50;98837.31;;;17.83;53.15
79782;BME280;69262;48.470;7.960;2023-04-24T03:57:51;98914.88;;;18.25;53.32
79782;BME280;69262;48.470;7.960;2023-04-24T04:00:55;98889.78;;;18.06;53.62
79782;BME280;69262;48.470;7.960;2023-04-24T04:04:19;98845.56;;;17.66;53.71
79782;BME280;69262;48.470;7.960;2023-04-24T04:07:20;98879.00;;;17.95;53.70
79782;BME280;69262;48.470;7.960;2023-04-24T04:10:20;98890.94;;;18.11;53.96
79782;BME280;69262;48.470;7.960;2023-04-24T04:13:21;98858.84;;;18.01;53.42
79782;BME280;69262;48.470;7.960;2023-04-24T04:16:21;98881.47;;;18.18;53.31
79782;BME280;69262;48.470;7.960;2023-04-24T04:19:24;98896.03;;;18.24;53.40
79782;BME280;69262;48.470;7.960;2023-04-24T04:22:25;98918.03;;;18.34;53.16
79782;BME280;69262;48.470;7.960;2023-04-24T04:25:27;98923.41;;;18.29;53.31
79782;BME280;69262;48.470;7.960;2023-04-24T04:28:27;98923.41;;;18.29;53.17
79782;BME280;69262;48.470;7.960;2023-04-24T04:31:28;98824.69;;;17.60;53.68
79782;BME280;69262;48.470;7.960;2023-04-24T04:34:30;98940.00;;;18.22;53.42
79782;BME280;69262;48.470;7.960;2023-04-24T04:37:34;98947.47;;;18.32;53.13
79782;BME280;69262;48.470;7.960;2023-04-24T04:40:53;98911.47;;;18.13;53.25
79782;BME280;69262;48.470;7.960;2023-04-24T04:43:56;98953.19;;;18.30;53.30
79782;BME280;69262;48.470;7.960;2023-04-24T04:46:59;98952.38;;;18.30;53.55
79782;BME280;69262;48.470;7.960;2023-04-24T04:50:04;98954.13;;;18.36;52.83
79782;BME280;69262;48.470;7.960;2023-04-24T04:53:06;98950.41;;;18.47;52.40
79782;BME280;69262;48.470;7.960;2023-04-24T04:56:10;98967.34;;;18.66;52.73
79782;BME280;69262;48.470;7.960;2023-04-24T04:59:14;98966.69;;;18.81;52.53
79782;BME280;69262;48.470;7.960;2023-04-24T05:02:15;98935.41;;;18.72;52.14
79782;BME280;69262;48.470;7.960;2023-04-24T05:05:15;98958.59;;;18.91;52.15
79782;BME280;69262;48.470;7.960;2023-04-24T05:08:17;98953.66;;;18.88;52.05
79782;BME280;69262;48.470;7.960;2023-04-24T05:11:18;98970.41;;;18.96;51.84
79782;BME280;69262;48.470;7.960;2023-04-24T05:14:18;98963.59;;;18.99;51.79
79782;BME280;69262;48.470;7.960;2023-04-24T05:17:19;98960.84;;;18.99;52.07
79782;BME280;69262;48.470;7.960;2023-04-24T05:20:20;98971.22;;;18.97;51.94
79782;BME280;69262;48.470;7.960;2023-04-24T05:23:21;98970.63;;;18.90;51.63
79782;BME280;69262;48.470;7.960;2023-04-24T05:26:26;98979.66;;;18.90;52.06
79782;BME280;69262;48.470;7.960;2023-04-24T05:29:28;98989.00;;;18.94;52.13
79782;BME280;69262;48.470;7.960;2023-04-24T05:32:31;98990.91;;;18.94;51.85
79782;BME280;69262;48.470;7.960;2023-04-24T05:35:31;98975.16;;;18.79;52.07
79782;BME280;69262;48.470;7.960;2023-04-24T05:38:31;98999.38;;;18.92;52.09
79782;BME280;69262;48.470;7.960;2023-04-24T05:41:32;99021.28;;;18.97;51.89
79782;BME280;69262;48.470;7.960;2023-04-24T05:44:32;99033.00;;;18.93;52.30
79782;BME280;69262;48.470;7.960;2023-04-24T05:47:33;99037.59;;;18.87;52.05
79782;BME280;69262;48.470;7.960;2023-04-24T05:50:33;99036.53;;;18.88;52.05
79782;BME280;69262;48.470;7.960;2023-04-24T05:53:34;99072.28;;;19.04;52.23
79782;BME280;69262;48.470;7.960;2023-04-24T05:56:34;99056.84;;;18.97;52.25
79782;BME280;69262;48.470;7.960;2023-04-24T05:59:37;99053.50;;;18.90;52.03
79782;BME280;69262;48.470;7.960;2023-04-24T06:02:41;99058.72;;;18.92;52.07
79782;BME280;69262;48.470;7.960;2023-04-24T06:05:45;99054.00;;;18.87;52.23
79782;BME280;69262;48.470;7.960;2023-04-24T06:08:47;99042.44;;;18.80;51.91
79782;BME280;69262;48.470;7.960;2023-04-24T06:11:47;99072.44;;;18.97;51.68
79782;BME280;69262;48.470;7.960;2023-04-24T06:14:48;99060.94;;;18.95;51.59
79782;BME280;69262;48.470;7.960;2023-04-24T06:17:56;99077.13;;;19.23;51.12
79782;BME280;69262;48.470;7.960;2023-04-24T06:20:56;99070.06;;;19.27;50.74
79782;BME280;69262;48.470;7.960;2023-04-24T06:23:58;99070.69;;;19.35;51.02
79782;BME280;69262;48.470;7.960;2023-04-24T06:26:58;99083.66;;;19.44;50.72
79782;BME280;69262;48.470;7.960;2023-04-24T06:30:00;99086.13;;;19.46;50.54
79782;BME280;69262;48.470;7.960;2023-04-24T06:33:00;99111.53;;;19.63;50.94
79782;BME280;69262;48.470;7.960;2023-04-24T06:36:01;99087.03;;;19.51;52.09
79782;BME280;69262;48.470;7.960;2023-04-24T06:39:01;99104.66;;;19.61;52.80
79782;BME280;69262;48.470;7.960;2023-04-24T06:42:02;99098.41;;;19.65;52.53
79782;BME280;69262;48.470;7.960;2023-04-24T06:45:02;99101.03;;;19.82;51.04
79782;BME280;69262;48.470;7.960;2023-04-24T06:48:03;99081.03;;;19.81;50.41
79782;BME280;69262;48.470;7.960;2023-04-24T06:51:03;99084.19;;;19.95;50.82
79782;BME280;69262;48.470;7.960;2023-04-24T06:54:04;99076.88;;;20.11;49.99
79782;BME280;69262;48.470;7.960;2023-04-24T06:57:04;99107.13;;;20.21;50.10
79782;BME280;69262;48.470;7.960;2023-04-24T07:00:05;99093.66;;;20.14;49.59
79782;BME280;69262;48.470;7.960;2023-04-24T07:03:06;99130.22;;;20.35;49.23
79782;BME280;69262;48.470;7.960;2023-04-24T07:06:08;99122.69;;;20.47;49.31
79782;BME280;69262;48.470;7.960;2023-04-24T07:09:09;99118.06;;;20.53;48.76
79782;BME280;69262;48.470;7.960;2023-04-24T07:12:09;99129.84;;;20.16;49.34
79782;BME280;69262;48.470;7.960;2023-04-24T07:15:13;99114.25;;;20.22;49.26
79782;BME280;69262;48.470;7.960;2023-04-24T07:18:15;99116.97;;;20.17;49.34
79782;BME280;69262;48.470;7.960;2023-04-24T07:21:15;99107.78;;;20.01;49.39
79782;BME280;69262;48.470;7.960;2023-04-24T07:24:15;99119.03;;;20.05;49.57
79782;BME280;69262;48.470;7.960;2023-04-24T07:27:16;99144.03;;;20.13;49.58
79782;BME280;69262;48.470;7.960;2023-04-24T07:30:16;99146.53;;;20.15;49.36
79782;BME280;69262;48.470;7.960;2023-04-24T07:33:17;99165.09;;;20.08;49.54
79782;BME280;69262;48.470;7.960;2023-04-24T07:36:17;99156.94;;;19.86;50.02
79782;BME280;69262;48.470;7.960;2023-04-24T07:39:19;99174.66;;;20.05;49.88
